Terminal Aerodrome Forecast
Issued by NWS

Home | Current Version | Previous Version | Text Only | Print | Product List | Glossary On
Versions: 1 2 3 4 5 6 7 8 9 10 11 12 13 14 15 16 17 18 19 20 21 22 23 24 25 26 27 28 29 30 31 32 33 34 35 36
000
FTUS42 KJAX 300521
TAFCRG
TAF
KCRG 300521Z 3006/0106 22004KT P6SM SCT250
     FM301600 27009KT P6SM VCSH SCT040
     FM301900 24011KT P6SM VCTS BKN040CB
     FM010000 22007KT P6SM SCT040 BKN100
     FM010400 21004KT P6SM BKN250=

USA.gov is the U.S. government's official web portal to all federal, state and local government web resources and services.